Pagrindinis puslapis
METAR-TAF:

METAR-TAF

Oro uostai :

Karlstadas, Švedija

platuma: 59-26-41N, ilguma: 013-20-15E, Aukštis: 107 m

Dabartinis oras

Ataskaita buvo paskelbta 42 minutes, ne 02:50 UTC
Vėjas 5 kt iš Pietų/Pietvakarių
Temperatūra 13°C
Drėgmė 100%
Slėgis 1023 hPa
Matomumas: 0800 m
rūkana

METAR: ESOK 240250Z AUTO 20005KT 0800 R03/P1500D R21/P1500N BR SCT008/// 13/13 Q1023

Laikas: 05:32 (03:32 UTC)

Prognozė

Ataskaita buvo paskelbta 16 valandos ir 2 minutes, ne 11:30 UTC
Prognozė galioja nuo 23 metu 12 UTC su 23 metu 15 UTC
Vėjas 10 kt iš Pietų
Matomumas 10 km arba daugiau
Su prošvaistėmis ne aukštis 600 ft
Tapsmas
nuo 23 metu 12 UTC su 23 metu 14 UTC
Vėjas 10 kt iš Vakarų/Pietvakarių
Su prošvaistėmis ne aukštis 2000 ft

TAF: ESOK 231130Z 2312/2315 19010KT 9999 BKN006 BECMG 2312/2314 25010KT BKN020

Orai ataskaitas ir orų prognozės (METAR, TAF).

turimą stotys yra geltonos ir raudonos taškus žemėlapyje.

Perkelti pele per norėdami pamatyti stoties vardą.

Tada spustelėkite, norėdami matyti oro stebėjimo ir prognozės.

Norėdami pakeisti žemėlapį: spustelėkite ant žalios mygtukų su juodo kryžiaus žemyn,; žalią mygtuką su brūkšneliu, jei norite nutolinti; arba žalių rodyklių gretimoms žemėlapius.


METAR-TAF: